sensor_id;sensor_type;location;lat;lon;timestamp;pressure;altitude;pressure_sealevel;temperature;humidity
54978;BME280;40873;47.522;19.106;2022-07-01T00:00:50;99933.34;;;27.01;58.44
54978;BME280;40873;47.522;19.106;2022-07-01T00:03:17;99931.09;;;26.98;59.43
54978;BME280;40873;47.522;19.106;2022-07-01T00:05:44;99930.44;;;26.90;59.80
54978;BME280;40873;47.522;19.106;2022-07-01T00:08:11;99934.81;;;26.91;59.32
54978;BME280;40873;47.522;19.106;2022-07-01T00:10:38;99935.44;;;26.86;59.58
54978;BME280;40873;47.522;19.106;2022-07-01T00:13:05;99936.06;;;26.75;60.58
54978;BME280;40873;47.522;19.106;2022-07-01T00:15:33;99939.59;;;26.69;60.85
54978;BME280;40873;47.522;19.106;2022-07-01T00:18:00;99932.53;;;26.61;61.31
54978;BME280;40873;47.522;19.106;2022-07-01T00:20:27;99925.66;;;26.59;60.77
54978;BME280;40873;47.522;19.106;2022-07-01T00:22:54;99924.41;;;26.61;60.53
54978;BME280;40873;47.522;19.106;2022-07-01T00:25:20;99930.03;;;26.60;60.47
54978;BME280;40873;47.522;19.106;2022-07-01T00:27:47;99932.31;;;26.69;60.12
54978;BME280;40873;47.522;19.106;2022-07-01T00:30:15;99935.22;;;26.74;60.34
54978;BME280;40873;47.522;19.106;2022-07-01T00:32:42;99921.09;;;26.72;60.08
54978;BME280;40873;47.522;19.106;2022-07-01T00:35:09;99930.44;;;26.57;61.51
54978;BME280;40873;47.522;19.106;2022-07-01T00:37:38;99929.41;;;26.51;61.34
54978;BME280;40873;47.522;19.106;2022-07-01T00:40:06;99928.13;;;26.40;62.28
54978;BME280;40873;47.522;19.106;2022-07-01T00:42:33;99935.97;;;26.35;62.47
54978;BME280;40873;47.522;19.106;2022-07-01T00:45:00;99925.38;;;26.34;62.04
54978;BME280;40873;47.522;19.106;2022-07-01T00:47:27;99933.47;;;26.27;62.76
54978;BME280;40873;47.522;19.106;2022-07-01T00:49:54;99933.28;;;26.29;62.64
54978;BME280;40873;47.522;19.106;2022-07-01T00:52:21;99935.13;;;26.21;63.47
54978;BME280;40873;47.522;19.106;2022-07-01T00:54:53;99928.00;;;26.07;64.42
54978;BME280;40873;47.522;19.106;2022-07-01T00:57:21;99936.31;;;25.99;64.45
54978;BME280;40873;47.522;19.106;2022-07-01T00:59:48;99930.69;;;25.94;65.67
54978;BME280;40873;47.522;19.106;2022-07-01T01:02:15;99925.88;;;25.89;65.58
54978;BME280;40873;47.522;19.106;2022-07-01T01:04:42;99937.06;;;25.86;65.37
54978;BME280;40873;47.522;19.106;2022-07-01T01:07:09;99934.00;;;25.89;64.58
54978;BME280;40873;47.522;19.106;2022-07-01T01:09:36;99930.47;;;25.89;65.25
54978;BME280;40873;47.522;19.106;2022-07-01T01:12:03;99927.94;;;25.81;65.44
54978;BME280;40873;47.522;19.106;2022-07-01T01:14:30;99936.19;;;25.73;65.34
54978;BME280;40873;47.522;19.106;2022-07-01T01:17:09;99934.75;;;25.77;65.28
54978;BME280;40873;47.522;19.106;2022-07-01T01:19:36;99935.34;;;25.72;65.90
54978;BME280;40873;47.522;19.106;2022-07-01T01:22:03;99934.97;;;25.75;65.89
54978;BME280;40873;47.522;19.106;2022-07-01T01:24:30;99937.38;;;25.63;66.26
54978;BME280;40873;47.522;19.106;2022-07-01T01:26:56;99937.16;;;25.65;66.11
54978;BME280;40873;47.522;19.106;2022-07-01T01:29:23;99941.00;;;25.77;65.29
54978;BME280;40873;47.522;19.106;2022-07-01T01:31:50;99947.25;;;25.84;65.12
54978;BME280;40873;47.522;19.106;2022-07-01T01:34:17;99940.59;;;25.74;66.09
54978;BME280;40873;47.522;19.106;2022-07-01T01:36:44;99951.25;;;25.88;65.45
54978;BME280;40873;47.522;19.106;2022-07-01T01:39:11;99949.09;;;25.77;65.57
54978;BME280;40873;47.522;19.106;2022-07-01T01:41:43;99943.84;;;25.69;65.94
54978;BME280;40873;47.522;19.106;2022-07-01T01:44:10;99943.56;;;25.57;66.50
54978;BME280;40873;47.522;19.106;2022-07-01T01:46:37;99945.81;;;25.47;67.89
54978;BME280;40873;47.522;19.106;2022-07-01T01:49:06;99948.84;;;25.37;68.16
54978;BME280;40873;47.522;19.106;2022-07-01T01:51:33;99945.72;;;25.34;68.54
54978;BME280;40873;47.522;19.106;2022-07-01T01:54:00;99942.56;;;25.30;68.72
54978;BME280;40873;47.522;19.106;2022-07-01T01:56:27;99943.81;;;25.28;68.95
54978;BME280;40873;47.522;19.106;2022-07-01T01:58:54;99948.13;;;25.22;69.91
54978;BME280;40873;47.522;19.106;2022-07-01T02:01:21;99946.88;;;25.18;69.69
54978;BME280;40873;47.522;19.106;2022-07-01T02:03:49;99939.41;;;25.20;69.86
54978;BME280;40873;47.522;19.106;2022-07-01T02:06:17;99935.78;;;25.06;70.02
54978;BME280;40873;47.522;19.106;2022-07-01T02:08:44;99936.13;;;25.03;70.33
54978;BME280;40873;47.522;19.106;2022-07-01T02:11:14;99934.41;;;24.96;70.61
54978;BME280;40873;47.522;19.106;2022-07-01T02:13:41;99936.88;;;24.91;70.89
54978;BME280;40873;47.522;19.106;2022-07-01T02:16:08;99924.16;;;24.84;71.50
54978;BME280;40873;47.522;19.106;2022-07-01T02:18:34;99934.69;;;24.79;71.61
54978;BME280;40873;47.522;19.106;2022-07-01T02:21:01;99934.84;;;24.71;71.98
54978;BME280;40873;47.522;19.106;2022-07-01T02:23:36;99927.59;;;24.72;72.06
54978;BME280;40873;47.522;19.106;2022-07-01T02:26:02;99938.88;;;24.60;72.57
54978;BME280;40873;47.522;19.106;2022-07-01T02:28:29;99944.47;;;24.59;73.08
54978;BME280;40873;47.522;19.106;2022-07-01T02:30:56;99944.13;;;24.47;73.12
54978;BME280;40873;47.522;19.106;2022-07-01T02:33:23;99945.94;;;24.40;73.76
54978;BME280;40873;47.522;19.106;2022-07-01T02:35:50;99958.69;;;24.31;74.59
54978;BME280;40873;47.522;19.106;2022-07-01T02:38:17;99957.50;;;24.19;75.20
54978;BME280;40873;47.522;19.106;2022-07-01T02:40:44;99949.19;;;24.14;75.32
54978;BME280;40873;47.522;19.106;2022-07-01T02:43:10;99949.63;;;24.18;75.59
54978;BME280;40873;47.522;19.106;2022-07-01T02:45:38;99957.63;;;24.11;75.78
54978;BME280;40873;47.522;19.106;2022-07-01T02:48:05;99953.72;;;24.14;75.51
54978;BME280;40873;47.522;19.106;2022-07-01T02:50:32;99962.19;;;24.11;75.77
54978;BME280;40873;47.522;19.106;2022-07-01T02:52:59;99956.91;;;24.02;75.97
54978;BME280;40873;47.522;19.106;2022-07-01T02:55:26;99972.97;;;24.11;75.65
54978;BME280;40873;47.522;19.106;2022-07-01T02:57:55;99969.63;;;24.09;76.47
54978;BME280;40873;47.522;19.106;2022-07-01T03:00:23;99976.16;;;23.99;76.61
54978;BME280;40873;47.522;19.106;2022-07-01T03:02:50;99968.72;;;24.01;76.83
54978;BME280;40873;47.522;19.106;2022-07-01T03:05:17;99974.66;;;23.97;76.76
54978;BME280;40873;47.522;19.106;2022-07-01T03:07:44;99978.09;;;23.91;76.89
54978;BME280;40873;47.522;19.106;2022-07-01T03:10:11;99979.22;;;23.82;77.74
54978;BME280;40873;47.522;19.106;2022-07-01T03:12:38;99976.72;;;23.80;78.20
54978;BME280;40873;47.522;19.106;2022-07-01T03:15:11;99981.66;;;23.76;78.82
54978;BME280;40873;47.522;19.106;2022-07-01T03:17:40;99977.56;;;23.81;78.71
54978;BME280;40873;47.522;19.106;2022-07-01T03:20:10;99981.09;;;23.81;78.73
54978;BME280;40873;47.522;19.106;2022-07-01T03:22:37;99982.97;;;23.81;78.51
54978;BME280;40873;47.522;19.106;2022-07-01T03:25:05;99984.22;;;23.85;78.30
54978;BME280;40873;47.522;19.106;2022-07-01T03:27:33;99982.97;;;23.81;78.64
54978;BME280;40873;47.522;19.106;2022-07-01T03:30:01;99995.28;;;23.90;78.29
54978;BME280;40873;47.522;19.106;2022-07-01T03:32:28;100000.03;;;23.88;78.53
54978;BME280;40873;47.522;19.106;2022-07-01T03:34:55;100001.50;;;23.90;78.71
54978;BME280;40873;47.522;19.106;2022-07-01T03:37:22;100005.03;;;23.91;78.79
54978;BME280;40873;47.522;19.106;2022-07-01T03:39:49;100004.94;;;23.99;79.16
54978;BME280;40873;47.522;19.106;2022-07-01T03:42:17;100008.94;;;24.03;79.01
54978;BME280;40873;47.522;19.106;2022-07-01T03:44:44;100016.47;;;24.08;78.71
54978;BME280;40873;47.522;19.106;2022-07-01T03:47:11;100014.41;;;24.10;78.61
54978;BME280;40873;47.522;19.106;2022-07-01T03:49:38;100030.88;;;24.15;76.70
54978;BME280;40873;47.522;19.106;2022-07-01T03:52:05;100029.53;;;24.25;75.67
54978;BME280;40873;47.522;19.106;2022-07-01T03:54:32;100028.44;;;24.35;76.51
54978;BME280;40873;47.522;19.106;2022-07-01T03:57:07;100036.78;;;24.40;75.76
54978;BME280;40873;47.522;19.106;2022-07-01T03:59:39;100040.03;;;24.50;75.89
54978;BME280;40873;47.522;19.106;2022-07-01T04:02:07;100045.69;;;24.55;76.22
54978;BME280;40873;47.522;19.106;2022-07-01T04:04:34;100046.41;;;24.64;74.51
54978;BME280;40873;47.522;19.106;2022-07-01T04:07:04;100052.50;;;24.72;74.76
54978;BME280;40873;47.522;19.106;2022-07-01T04:09:33;100045.03;;;24.74;72.64
54978;BME280;40873;47.522;19.106;2022-07-01T04:12:00;100042.47;;;24.87;71.92
54978;BME280;40873;47.522;19.106;2022-07-01T04:14:26;100048.78;;;24.95;71.54
54978;BME280;40873;47.522;19.106;2022-07-01T04:16:53;100047.81;;;25.02;71.20
54978;BME280;40873;47.522;19.106;2022-07-01T04:19:20;100043.75;;;25.06;71.57
54978;BME280;40873;47.522;19.106;2022-07-01T04:21:47;100039.66;;;25.17;71.08
54978;BME280;40873;47.522;19.106;2022-07-01T04:24:33;100040.38;;;25.26;72.08
54978;BME280;40873;47.522;19.106;2022-07-01T04:27:00;100045.13;;;25.24;71.93
54978;BME280;40873;47.522;19.106;2022-07-01T04:29:27;100038.38;;;25.34;70.77
54978;BME280;40873;47.522;19.106;2022-07-01T04:31:58;100028.03;;;25.45;70.23
54978;BME280;40873;47.522;19.106;2022-07-01T04:34:25;100027.47;;;25.49;72.14
54978;BME280;40873;47.522;19.106;2022-07-01T04:36:52;100021.47;;;25.54;70.53
54978;BME280;40873;47.522;19.106;2022-07-01T04:39:19;100022.72;;;25.58;71.32
54978;BME280;40873;47.522;19.106;2022-07-01T04:41:46;100023.22;;;25.68;70.82
54978;BME280;40873;47.522;19.106;2022-07-01T04:44:30;100019.16;;;25.79;71.63
54978;BME280;40873;47.522;19.106;2022-07-01T04:46:57;100014.00;;;25.84;70.69
54978;BME280;40873;47.522;19.106;2022-07-01T04:49:24;100018.16;;;25.86;71.00
54978;BME280;40873;47.522;19.106;2022-07-01T04:51:51;100024.25;;;25.95;70.16
54978;BME280;40873;47.522;19.106;2022-07-01T04:54:18;100016.19;;;26.02;69.70
54978;BME280;40873;47.522;19.106;2022-07-01T04:56:46;100019.53;;;26.10;69.53
54978;BME280;40873;47.522;19.106;2022-07-01T04:59:14;100018.94;;;26.21;68.31
54978;BME280;40873;47.522;19.106;2022-07-01T05:01:42;100016.06;;;26.30;68.39
54978;BME280;40873;47.522;19.106;2022-07-01T05:04:10;100018.81;;;26.36;68.01
54978;BME280;40873;47.522;19.106;2022-07-01T05:06:37;100011.38;;;26.45;68.22
54978;BME280;40873;47.522;19.106;2022-07-01T05:09:04;100017.00;;;26.50;67.84
54978;BME280;40873;47.522;19.106;2022-07-01T05:11:32;100027.63;;;26.58;66.81
54978;BME280;40873;47.522;19.106;2022-07-01T05:13:59;100031.81;;;26.67;66.74
54978;BME280;40873;47.522;19.106;2022-07-01T05:16:25;100033.91;;;26.72;67.38
54978;BME280;40873;47.522;19.106;2022-07-01T05:18:52;100029.53;;;26.84;66.57
54978;BME280;40873;47.522;19.106;2022-07-01T05:21:38;100040.59;;;26.89;65.44
54978;BME280;40873;47.522;19.106;2022-07-01T05:24:24;100039.38;;;26.98;65.21
54978;BME280;40873;47.522;19.106;2022-07-01T05:26:51;100041.69;;;27.08;64.82
54978;BME280;40873;47.522;19.106;2022-07-01T05:29:18;100048.16;;;27.20;64.98
54978;BME280;40873;47.522;19.106;2022-07-01T05:31:46;100037.31;;;27.27;64.04
54978;BME280;40873;47.522;19.106;2022-07-01T05:34:13;100043.75;;;27.39;64.08
54978;BME280;40873;47.522;19.106;2022-07-01T05:36:40;100046.06;;;27.49;63.63
54978;BME280;40873;47.522;19.106;2022-07-01T05:39:07;100041.03;;;27.52;63.58
54978;BME280;40873;47.522;19.106;2022-07-01T05:41:35;100041.47;;;27.63;62.72
54978;BME280;40873;47.522;19.106;2022-07-01T05:44:02;100035.56;;;27.99;61.23
54978;BME280;40873;47.522;19.106;2022-07-01T05:46:29;100053.56;;;28.45;60.46
54978;BME280;40873;47.522;19.106;2022-07-01T05:48:56;100052.94;;;29.12;57.46
54978;BME280;40873;47.522;19.106;2022-07-01T05:51:23;100047.91;;;29.41;56.40
54978;BME280;40873;47.522;19.106;2022-07-01T05:53:50;100055.47;;;29.64;55.95
54978;BME280;40873;47.522;19.106;2022-07-01T05:56:17;100050.53;;;29.97;54.48
54978;BME280;40873;47.522;19.106;2022-07-01T05:58:44;100068.16;;;29.88;53.85
54978;BME280;40873;47.522;19.106;2022-07-01T06:01:11;100050.84;;;30.26;52.69
54978;BME280;40873;47.522;19.106;2022-07-01T06:03:38;100055.78;;;30.47;52.38
54978;BME280;40873;47.522;19.106;2022-07-01T06:06:05;100059.69;;;30.51;53.29
54978;BME280;40873;47.522;19.106;2022-07-01T06:08:32;100057.38;;;30.37;52.23
54978;BME280;40873;47.522;19.106;2022-07-01T06:11:00;100067.84;;;30.21;52.93
54978;BME280;40873;47.522;19.106;2022-07-01T06:13:27;100067.97;;;30.08;52.97
54978;BME280;40873;47.522;19.106;2022-07-01T06:15:55;100077.72;;;29.97;52.05
54978;BME280;40873;47.522;19.106;2022-07-01T06:18:25;100077.34;;;29.69;53.33
54978;BME280;40873;47.522;19.106;2022-07-01T06:20:52;100076.47;;;29.75;52.94
54978;BME280;40873;47.522;19.106;2022-07-01T06:23:19;100077.50;;;30.36;51.74
54978;BME280;40873;47.522;19.106;2022-07-01T06:25:46;100074.97;;;30.71;50.92
54978;BME280;40873;47.522;19.106;2022-07-01T06:28:13;100068.06;;;30.98;49.77
54978;BME280;40873;47.522;19.106;2022-07-01T06:30:40;100074.28;;;30.75;49.80
54978;BME280;40873;47.522;19.106;2022-07-01T06:33:11;100072.56;;;30.93;49.68
54978;BME280;40873;47.522;19.106;2022-07-01T06:35:39;100065.97;;;31.12;49.02
54978;BME280;40873;47.522;19.106;2022-07-01T06:38:06;100074.38;;;31.10;49.13
54978;BME280;40873;47.522;19.106;2022-07-01T06:40:33;100070.50;;;31.18;48.91
54978;BME280;40873;47.522;19.106;2022-07-01T06:43:00;100064.94;;;30.53;50.51
54978;BME280;40873;47.522;19.106;2022-07-01T06:45:27;100068.84;;;30.39;50.91
54978;BME280;40873;47.522;19.106;2022-07-01T06:47:54;100072.28;;;30.82;49.29
54978;BME280;40873;47.522;19.106;2022-07-01T06:50:20;100073.91;;;30.72;49.96
54978;BME280;40873;47.522;19.106;2022-07-01T06:52:47;100075.34;;;31.16;49.33
54978;BME280;40873;47.522;19.106;2022-07-01T06:55:14;100081.78;;;31.33;47.91
54978;BME280;40873;47.522;19.106;2022-07-01T06:57:41;100070.94;;;30.73;49.64
54978;BME280;40873;47.522;19.106;2022-07-01T07:00:08;100066.03;;;30.64;50.08
54978;BME280;40873;47.522;19.106;2022-07-01T07:02:36;100073.16;;;30.95;48.99
54978;BME280;40873;47.522;19.106;2022-07-01T07:05:03;100075.03;;;30.82;49.70
54978;BME280;40873;47.522;19.106;2022-07-01T07:07:31;100062.13;;;31.43;48.36
54978;BME280;40873;47.522;19.106;2022-07-01T07:09:58;100072.59;;;31.58;48.81
54978;BME280;40873;47.522;19.106;2022-07-01T07:12:24;100065.50;;;31.80;47.89
54978;BME280;40873;47.522;19.106;2022-07-01T07:14:51;100066.16;;;31.76;48.07
54978;BME280;40873;47.522;19.106;2022-07-01T07:17:18;100068.06;;;31.40;47.53
54978;BME280;40873;47.522;19.106;2022-07-01T07:19:45;100072.09;;;31.73;47.36
54978;BME280;40873;47.522;19.106;2022-07-01T07:22:12;100057.56;;;31.79;47.35
54978;BME280;40873;47.522;19.106;2022-07-01T07:24:39;100060.63;;;31.82;46.81
54978;BME280;40873;47.522;19.106;2022-07-01T07:27:07;100054.56;;;31.92;46.86
54978;BME280;40873;47.522;19.106;2022-07-01T07:29:34;100056.09;;;31.64;47.05
54978;BME280;40873;47.522;19.106;2022-07-01T07:32:01;100058.25;;;31.51;47.62
54978;BME280;40873;47.522;19.106;2022-07-01T07:34:27;100062.72;;;31.45;48.33
54978;BME280;40873;47.522;19.106;2022-07-01T07:36:54;100063.19;;;31.30;48.43
54978;BME280;40873;47.522;19.106;2022-07-01T07:39:21;100062.72;;;31.33;48.67
54978;BME280;40873;47.522;19.106;2022-07-01T07:41:48;100067.22;;;31.28;48.49
54978;BME280;40873;47.522;19.106;2022-07-01T07:44:16;100065.22;;;31.23;46.97
54978;BME280;40873;47.522;19.106;2022-07-01T07:46:43;100066.75;;;31.01;47.33
54978;BME280;40873;47.522;19.106;2022-07-01T07:49:10;100067.97;;;31.05;48.62
54978;BME280;40873;47.522;19.106;2022-07-01T07:51:37;100065.72;;;31.14;47.74
54978;BME280;40873;47.522;19.106;2022-07-01T07:54:04;100060.03;;;31.15;48.10
54978;BME280;40873;47.522;19.106;2022-07-01T07:56:31;100064.91;;;31.13;47.37
54978;BME280;40873;47.522;19.106;2022-07-01T07:58:58;100071.59;;;31.29;47.41
54978;BME280;40873;47.522;19.106;2022-07-01T08:01:25;100078.50;;;31.55;46.50
54978;BME280;40873;47.522;19.106;2022-07-01T08:03:52;100072.38;;;31.18;47.36
54978;BME280;40873;47.522;19.106;2022-07-01T08:06:19;100075.91;;;31.36;46.82
54978;BME280;40873;47.522;19.106;2022-07-01T08:08:46;100068.16;;;31.57;47.14
54978;BME280;40873;47.522;19.106;2022-07-01T08:11:14;100075.16;;;31.29;46.82
54978;BME280;40873;47.522;19.106;2022-07-01T08:13:40;100068.63;;;31.42;46.47
54978;BME280;40873;47.522;19.106;2022-07-01T08:16:08;100066.63;;;31.49;46.03
54978;BME280;40873;47.522;19.106;2022-07-01T08:18:36;100075.28;;;31.70;46.47
54978;BME280;40873;47.522;19.106;2022-07-01T08:21:03;100080.41;;;31.66;45.46
54978;BME280;40873;47.522;19.106;2022-07-01T08:23:30;100076.94;;;31.47;45.38
54978;BME280;40873;47.522;19.106;2022-07-01T08:25:57;100071.63;;;31.41;45.86
54978;BME280;40873;47.522;19.106;2022-07-01T08:28:24;100072.56;;;31.46;44.37
54978;BME280;40873;47.522;19.106;2022-07-01T08:30:51;100077.44;;;31.68;44.41
54978;BME280;40873;47.522;19.106;2022-07-01T08:33:18;100077.44;;;31.68;44.45
54978;BME280;40873;47.522;19.106;2022-07-01T08:35:45;100071.06;;;31.85;43.74
54978;BME280;40873;47.522;19.106;2022-07-01T08:38:12;100069.25;;;31.91;43.18
54978;BME280;40873;47.522;19.106;2022-07-01T08:40:40;100074.59;;;31.74;43.74
54978;BME280;40873;47.522;19.106;2022-07-01T08:43:07;100071.53;;;31.82;44.43
54978;BME280;40873;47.522;19.106;2022-07-01T08:45:36;100076.66;;;31.79;44.05
54978;BME280;40873;47.522;19.106;2022-07-01T08:48:04;100074.97;;;31.89;43.78
54978;BME280;40873;47.522;19.106;2022-07-01T08:50:37;100078.00;;;32.05;43.88
54978;BME280;40873;47.522;19.106;2022-07-01T08:53:06;100070.19;;;32.08;44.36
54978;BME280;40873;47.522;19.106;2022-07-01T08:55:34;100075.25;;;32.28;43.82
54978;BME280;40873;47.522;19.106;2022-07-01T08:58:26;100067.03;;;32.40;43.07
54978;BME280;40873;47.522;19.106;2022-07-01T09:00:53;100075.47;;;32.67;42.90
54978;BME280;40873;47.522;19.106;2022-07-01T09:03:26;100073.38;;;32.69;41.87
54978;BME280;40873;47.522;19.106;2022-07-01T09:05:53;100073.66;;;32.56;41.70
54978;BME280;40873;47.522;19.106;2022-07-01T09:08:26;100069.41;;;32.77;41.90
54978;BME280;40873;47.522;19.106;2022-07-01T09:10:53;100070.47;;;32.76;41.12
54978;BME280;40873;47.522;19.106;2022-07-01T09:13:20;100067.69;;;32.87;41.29
54978;BME280;40873;47.522;19.106;2022-07-01T09:15:47;100066.56;;;33.00;41.55
54978;BME280;40873;47.522;19.106;2022-07-01T09:18:15;100058.16;;;33.18;41.68
54978;BME280;40873;47.522;19.106;2022-07-01T09:20:46;100053.41;;;33.31;40.63
54978;BME280;40873;47.522;19.106;2022-07-01T09:23:16;100056.38;;;33.29;41.03
54978;BME280;40873;47.522;19.106;2022-07-01T09:28:24;100072.66;;;33.52;40.21
54978;BME280;40873;47.522;19.106;2022-07-01T09:30:57;100063.69;;;33.57;40.21
54978;BME280;40873;47.522;19.106;2022-07-01T09:33:28;100052.03;;;34.22;39.20
54978;BME280;40873;47.522;19.106;2022-07-01T09:35:57;100051.03;;;34.50;38.12
54978;BME280;40873;47.522;19.106;2022-07-01T09:38:26;100048.75;;;34.91;37.41
54978;BME280;40873;47.522;19.106;2022-07-01T09:41:01;100049.50;;;35.19;38.58
54978;BME280;40873;47.522;19.106;2022-07-01T09:43:30;100048.47;;;34.93;37.23
54978;BME280;40873;47.522;19.106;2022-07-01T09:46:04;100051.06;;;34.33;37.05
54978;BME280;40873;47.522;19.106;2022-07-01T09:51:00;100042.03;;;34.55;37.12
54978;BME280;40873;47.522;19.106;2022-07-01T09:53:27;100044.91;;;34.70;36.65
54978;BME280;40873;47.522;19.106;2022-07-01T09:55:54;100050.69;;;34.25;36.31
54978;BME280;40873;47.522;19.106;2022-07-01T09:58:21;100049.53;;;33.99;37.88
54978;BME280;40873;47.522;19.106;2022-07-01T10:00:51;100038.78;;;35.12;35.33
54978;BME280;40873;47.522;19.106;2022-07-01T10:03:20;100040.97;;;34.88;35.93
54978;BME280;40873;47.522;19.106;2022-07-01T10:05:54;100031.13;;;34.38;36.50
54978;BME280;40873;47.522;19.106;2022-07-01T10:14:07;100029.09;;;35.04;34.40
54978;BME280;40873;47.522;19.106;2022-07-01T10:16:34;100027.34;;;35.25;34.01
54978;BME280;40873;47.522;19.106;2022-07-01T10:19:24;100028.59;;;35.07;34.84
54978;BME280;40873;47.522;19.106;2022-07-01T10:21:59;100032.47;;;35.16;34.60
54978;BME280;40873;47.522;19.106;2022-07-01T10:24:27;100035.19;;;35.11;34.11
54978;BME280;40873;47.522;19.106;2022-07-01T10:26:59;100034.81;;;34.71;35.21
54978;BME280;40873;47.522;19.106;2022-07-01T10:29:33;100026.19;;;35.16;34.46
54978;BME280;40873;47.522;19.106;2022-07-01T10:32:06;100034.34;;;34.52;35.40
54978;BME280;40873;47.522;19.106;2022-07-01T10:34:38;100036.69;;;34.92;35.10
54978;BME280;40873;47.522;19.106;2022-07-01T10:37:07;100027.75;;;34.80;34.48
54978;BME280;40873;47.522;19.106;2022-07-01T10:40:07;100016.50;;;35.40;34.32
54978;BME280;40873;47.522;19.106;2022-07-01T10:42:58;100011.47;;;35.69;33.96
54978;BME280;40873;47.522;19.106;2022-07-01T10:45:46;100018.28;;;36.14;32.97
54978;BME280;40873;47.522;19.106;2022-07-01T10:48:21;100020.34;;;35.82;32.85
54978;BME280;40873;47.522;19.106;2022-07-01T10:50:48;100018.34;;;36.30;32.32
54978;BME280;40873;47.522;19.106;2022-07-01T10:53:16;100017.41;;;35.99;33.08
54978;BME280;40873;47.522;19.106;2022-07-01T10:55:50;100012.50;;;36.06;32.99
54978;BME280;40873;47.522;19.106;2022-07-01T10:58:37;100005.66;;;35.56;33.11
54978;BME280;40873;47.522;19.106;2022-07-01T11:01:04;100011.47;;;36.27;32.20
54978;BME280;40873;47.522;19.106;2022-07-01T11:03:36;99998.66;;;36.63;31.38
54978;BME280;40873;47.522;19.106;2022-07-01T11:06:07;100002.22;;;36.64;30.37
54978;BME280;40873;47.522;19.106;2022-07-01T11:08:34;100009.47;;;36.07;31.02
54978;BME280;40873;47.522;19.106;2022-07-01T11:11:02;100012.25;;;36.12;31.43
54978;BME280;40873;47.522;19.106;2022-07-01T11:13:31;99994.25;;;36.47;30.45
54978;BME280;40873;47.522;19.106;2022-07-01T11:15:59;100006.13;;;35.95;31.31
54978;BME280;40873;47.522;19.106;2022-07-01T11:18:27;99994.72;;;36.23;31.33
54978;BME280;40873;47.522;19.106;2022-07-01T11:21:03;99989.06;;;36.76;30.96
54978;BME280;40873;47.522;19.106;2022-07-01T11:23:30;99987.97;;;37.18;29.28
54978;BME280;40873;47.522;19.106;2022-07-01T11:26:02;99998.38;;;36.44;29.89
54978;BME280;40873;47.522;19.106;2022-07-01T11:28:29;99986.28;;;36.40;29.83
54978;BME280;40873;47.522;19.106;2022-07-01T11:31:00;99987.66;;;36.53;29.04
54978;BME280;40873;47.522;19.106;2022-07-01T11:33:27;99989.03;;;36.45;28.72
54978;BME280;40873;47.522;19.106;2022-07-01T11:35:54;99983.84;;;36.74;28.96
54978;BME280;40873;47.522;19.106;2022-07-01T11:38:45;99971.22;;;36.89;28.91
54978;BME280;40873;47.522;19.106;2022-07-01T11:41:30;99960.22;;;37.09;28.56
54978;BME280;40873;47.522;19.106;2022-07-01T11:43:57;99964.31;;;37.12;28.76
54978;BME280;40873;47.522;19.106;2022-07-01T11:46:24;99962.28;;;37.68;28.24
54978;BME280;40873;47.522;19.106;2022-07-01T11:48:52;99964.03;;;37.39;28.86
54978;BME280;40873;47.522;19.106;2022-07-01T11:51:22;99957.72;;;36.77;29.14
54978;BME280;40873;47.522;19.106;2022-07-01T11:53:54;99969.28;;;36.79;29.19
54978;BME280;40873;47.522;19.106;2022-07-01T11:56:33;99964.56;;;36.64;28.98
54978;BME280;40873;47.522;19.106;2022-07-01T11:59:01;99963.38;;;36.19;30.02
54978;BME280;40873;47.522;19.106;2022-07-01T12:01:33;99957.91;;;36.30;29.67
54978;BME280;40873;47.522;19.106;2022-07-01T12:04:03;99954.59;;;36.17;30.03
54978;BME280;40873;47.522;19.106;2022-07-01T12:06:32;99957.44;;;36.63;29.70
54978;BME280;40873;47.522;19.106;2022-07-01T12:09:01;99951.66;;;36.85;29.14
54978;BME280;40873;47.522;19.106;2022-07-01T12:11:29;99939.53;;;38.12;28.26
54978;BME280;40873;47.522;19.106;2022-07-01T12:14:04;99941.09;;;38.28;27.04
54978;BME280;40873;47.522;19.106;2022-07-01T12:16:39;99939.47;;;38.27;26.95
54978;BME280;40873;47.522;19.106;2022-07-01T12:19:06;99927.72;;;38.06;26.56
54978;BME280;40873;47.522;19.106;2022-07-01T12:21:52;99935.59;;;38.28;26.60
54978;BME280;40873;47.522;19.106;2022-07-01T12:24:20;99928.47;;;37.63;25.90
54978;BME280;40873;47.522;19.106;2022-07-01T12:32:20;99933.78;;;37.34;27.78
54978;BME280;40873;47.522;19.106;2022-07-01T12:34:53;99931.03;;;37.18;27.54
54978;BME280;40873;47.522;19.106;2022-07-01T12:37:30;99915.06;;;37.25;27.41
54978;BME280;40873;47.522;19.106;2022-07-01T12:40:01;99922.69;;;37.64;26.63
54978;BME280;40873;47.522;19.106;2022-07-01T12:42:31;99921.97;;;37.13;26.70
54978;BME280;40873;47.522;19.106;2022-07-01T12:45:02;99905.66;;;37.47;26.79
54978;BME280;40873;47.522;19.106;2022-07-01T12:47:33;99904.53;;;37.63;26.05
54978;BME280;40873;47.522;19.106;2022-07-01T12:50:21;99895.91;;;38.29;25.57
54978;BME280;40873;47.522;19.106;2022-07-01T12:53:17;99891.66;;;38.03;25.85
54978;BME280;40873;47.522;19.106;2022-07-01T12:55:47;99898.81;;;37.49;26.38
54978;BME280;40873;47.522;19.106;2022-07-01T12:58:17;99902.25;;;37.80;25.55
54978;BME280;40873;47.522;19.106;2022-07-01T13:00:47;99903.72;;;37.52;25.61
54978;BME280;40873;47.522;19.106;2022-07-01T13:03:21;99894.47;;;37.93;25.07
54978;BME280;40873;47.522;19.106;2022-07-01T13:05:49;99887.88;;;37.89;25.78
54978;BME280;40873;47.522;19.106;2022-07-01T13:08:17;99894.28;;;37.74;25.13
54978;BME280;40873;47.522;19.106;2022-07-01T13:10:45;99887.50;;;37.56;25.80